Time;durP1;ratioP1;P1;durP2;ratioP2;P2;SDS_P1;SDS_P2;PMS_P1;PMS_P2;Temp;Humidity;BMP_temperature;BMP_pressure;BME280_temperature;BME280_humidity;BME280_pressure;Samples;Min_cycle;Max_cycle;Signal;HPM_P1;HPM_P2
2022/08/11 00:01:50;;;;;;;3.30;1.83;;;21.80;96.70;;;;;;5005126;28;20453;-70
2022/08/11 00:04:18;;;;;;;3.50;1.93;;;21.70;97.40;;;;;;5010397;28;20464;-70
2022/08/11 00:06:47;;;;;;;2.53;2.03;;;21.60;97.80;;;;;;5016840;28;20490;-70
2022/08/11 00:09:18;;;;;;;2.43;2.20;;;21.60;98.30;;;;;;5015696;28;20467;-70
2022/08/11 00:11:49;;;;;;;2.63;1.97;;;21.60;98.70;;;;;;5020849;28;20552;-70
2022/08/11 00:14:23;;;;;;;2.43;1.97;;;21.60;99.00;;;;;;5025091;28;20492;-70
2022/08/11 00:16:57;;;;;;;3.63;2.13;;;21.50;99.50;;;;;;5015317;28;20480;-70
2022/08/11 00:19:26;;;;;;;1.80;1.67;;;21.50;99.90;;;;;;5014497;28;20457;-70
2022/08/11 00:21:54;;;;;;;3.20;2.90;;;21.40;99.90;;;;;;5016148;28;21160;-69
2022/08/11 00:24:22;;;;;;;4.23;2.40;;;21.20;99.90;;;;;;5013297;28;20746;-69
2022/08/11 00:26:50;;;;;;;3.10;2.23;;;21.10;99.90;;;;;;5011411;28;20482;-70
2022/08/11 00:29:17;;;;;;;3.20;2.50;;;21.00;99.90;;;;;;5015066;28;20459;-69
2022/08/11 00:31:47;;;;;;;3.97;2.30;;;20.90;99.90;;;;;;5019855;28;20562;-70
2022/08/11 00:34:18;;;;;;;2.93;2.17;;;20.90;99.90;;;;;;5019344;28;20464;-69
2022/08/11 00:36:50;;;;;;;3.10;2.60;;;21.00;99.90;;;;;;5018150;28;20571;-69
2022/08/11 00:39:19;;;;;;;6.23;3.00;;;21.00;99.90;;;;;;5026988;28;20451;-69
2022/08/11 00:41:58;;;;;;;2.37;2.17;;;21.00;99.90;;;;;;5020915;28;20544;-72
2022/08/11 00:44:35;;;;;;;4.20;2.40;;;21.00;99.90;;;;;;5015887;28;20464;-69
2022/08/11 00:47:19;;;;;;;3.23;2.07;;;20.90;99.90;;;;;;5015356;28;20860;-70
2022/08/11 00:49:58;;;;;;;4.00;3.23;;;20.90;99.90;;;;;;5018717;28;20457;-69
2022/08/11 00:52:47;;;;;;;12.27;2.80;;;20.80;99.90;;;;;;5017466;28;20543;-69
2022/08/11 00:56:10;;;;;;;2.30;2.10;;;20.80;99.90;;;;;;5018334;28;20549;-70
2022/08/11 00:59:19;;;;;;;7.03;2.47;;;20.70;99.90;;;;;;5016453;28;20852;-69
2022/08/11 01:01:57;;;;;;;6.33;2.40;;;20.60;99.90;;;;;;5010301;28;21172;-70
2022/08/11 01:04:56;;;;;;;3.73;2.30;;;20.60;99.90;;;;;;5017376;28;20460;-69
2022/08/11 01:08:05;;;;;;;4.50;2.87;;;20.70;99.90;;;;;;5019511;28;21091;-69
2022/08/11 01:11:08;;;;;;;3.17;2.30;;;20.50;99.90;;;;;;5015054;28;21018;-69
2022/08/11 01:14:08;;;;;;;5.27;2.53;;;20.50;99.90;;;;;;5020557;28;20848;-69
2022/08/11 01:17:09;;;;;;;2.63;2.40;;;20.50;99.90;;;;;;5015958;28;20479;-69
2022/08/11 01:20:08;;;;;;;4.97;3.97;;;20.40;99.90;;;;;;5019385;28;20466;-69
2022/08/11 01:23:26;;;;;;;3.50;2.30;;;20.40;99.90;;;;;;5019157;28;20725;-70
2022/08/11 01:26:26;;;;;;;2.57;2.13;;;20.40;99.90;;;;;;5016176;28;20500;-69
2022/08/11 01:29:49;;;;;;;3.10;2.50;;;20.40;99.90;;;;;;5014263;28;20964;-69
2022/08/11 01:32:56;;;;;;;5.30;2.40;;;20.40;99.90;;;;;;5013366;28;20972;-70
2022/08/11 01:35:48;;;;;;;3.43;2.00;;;20.50;99.90;;;;;;5018618;28;20515;-69
2022/08/11 01:38:40;;;;;;;8.90;2.37;;;20.40;99.90;;;;;;5015894;28;20961;-69
2022/08/11 01:44:47;;;;;;;4.03;3.10;;;20.00;99.90;;;;;;5016289;28;20447;-69
2022/08/11 01:50:19;;;;;;;3.43;2.87;;;19.70;99.90;;;;;;5009604;28;20445;-69
2022/08/11 01:53:01;;;;;;;4.03;2.43;;;19.60;99.90;;;;;;5013561;28;20454;-70
2022/08/11 01:55:33;;;;;;;3.60;2.37;;;19.70;99.90;;;;;;5016940;28;20466;-70
2022/08/11 01:58:12;;;;;;;2.50;2.30;;;19.70;99.90;;;;;;5012770;28;20961;-70
2022/08/11 02:00:52;;;;;;;3.60;3.00;;;19.80;99.90;;;;;;5017404;28;20461;-70
2022/08/11 02:03:27;;;;;;;3.87;2.73;;;19.80;99.90;;;;;;5016360;28;20461;-69
2022/08/11 02:06:53;;;;;;;8.00;3.60;;;19.90;99.90;;;;;;5014808;28;20952;-70
2022/08/11 02:08:59;;;;;;;5.47;2.13;;;19.90;99.90;;;;;;5020367;28;20836;-70
2022/08/11 02:11:30;;;;;;;3.20;2.37;;;19.80;99.90;;;;;;5003651;28;20491;-69
2022/08/11 02:14:02;;;;;;;2.57;2.20;;;19.80;99.90;;;;;;5016321;28;20448;-70
2022/08/11 02:16:42;;;;;;;4.43;2.63;;;19.80;99.90;;;;;;5012185;28;20512;-69
2022/08/11 02:25:02;;;;;;;2.87;2.07;;;19.80;99.90;;;;;;5023696;28;20447;-69
2022/08/11 02:27:41;;;;;;;3.47;3.00;;;19.80;99.90;;;;;;5010692;28;20551;-69
2022/08/11 02:30:12;;;;;;;2.67;1.87;;;19.70;99.90;;;;;;5014433;28;20467;-69
2022/08/11 02:35:46;;;;;;;7.83;2.90;;;19.80;99.90;;;;;;5011078;28;20524;-69
2022/08/11 02:38:20;;;;;;;6.63;2.67;;;19.60;99.90;;;;;;5022703;28;20460;-69
2022/08/11 02:41:00;;;;;;;5.10;2.80;;;19.40;99.90;;;;;;5011652;28;20455;-69
2022/08/11 02:44:01;;;;;;;2.80;2.43;;;19.30;99.90;;;;;;5015240;28;20462;-69
2022/08/11 02:46:36;;;;;;;4.80;2.20;;;19.30;99.90;;;;;;5011319;28;20472;-69
2022/08/11 02:52:05;;;;;;;4.37;2.30;;;19.50;99.90;;;;;;5009003;28;20488;-69
2022/08/11 02:54:38;;;;;;;3.40;3.03;;;19.40;99.90;;;;;;5012408;28;21199;-69
2022/08/11 02:57:16;;;;;;;3.30;2.30;;;19.30;99.90;;;;;;5014966;28;20555;-69
2022/08/11 02:59:52;;;;;;;2.77;2.27;;;19.30;99.90;;;;;;5012809;28;20470;-69
2022/08/11 03:02:41;;;;;;;6.47;3.20;;;19.30;99.90;;;;;;5004068;28;20469;-69
2022/08/11 03:05:21;;;;;;;3.10;1.90;;;19.30;99.90;;;;;;5006309;28;20494;-69
2022/08/11 03:08:02;;;;;;;3.73;2.30;;;19.20;99.90;;;;;;5007109;28;20559;-71
2022/08/11 03:10:42;;;;;;;2.50;2.20;;;19.10;99.90;;;;;;5001068;28;20461;-68
2022/08/11 03:19:08;;;;;;;5.33;2.67;;;19.00;99.90;;;;;;5023947;28;20504;-69
2022/08/11 03:21:42;;;;;;;3.40;2.57;;;18.90;99.90;;;;;;5020530;28;20440;-70
2022/08/11 03:24:15;;;;;;;4.53;2.83;;;18.90;99.90;;;;;;5019086;28;20872;-70
2022/08/11 03:26:53;;;;;;;7.23;3.00;;;18.80;99.90;;;;;;5019693;28;20468;-69
2022/08/11 03:29:30;;;;;;;3.33;3.03;;;18.70;99.90;;;;;;5022646;28;20452;-69
2022/08/11 03:32:03;;;;;;;7.27;3.43;;;18.60;99.90;;;;;;5021393;28;20534;-69
2022/08/11 03:34:34;;;;;;;5.10;2.70;;;18.60;99.90;;;;;;5002418;28;20759;-69
2022/08/11 03:43:33;;;;;;;13.23;4.13;;;18.70;99.90;;;;;;5017978;28;20452;-69
2022/08/11 03:46:10;;;;;;;9.37;3.50;;;18.80;99.90;;;;;;5007103;28;20508;-69
2022/08/11 03:48:49;;;;;;;3.50;3.20;;;18.80;99.90;;;;;;5013452;28;20453;-69
2022/08/11 03:51:23;;;;;;;5.20;3.30;;;18.70;99.90;;;;;;5005137;28;20474;-69
2022/08/11 03:54:07;;;;;;;9.40;2.97;;;18.70;99.90;;;;;;5001829;28;21271;-69
2022/08/11 03:57:16;;;;;;;12.77;4.90;;;18.70;99.90;;;;;;5000472;28;20575;-69
2022/08/11 04:00:14;;;;;;;10.27;3.13;;;18.70;99.90;;;;;;5008063;28;20456;-69
2022/08/11 04:03:23;;;;;;;4.27;2.90;;;18.50;99.90;;;;;;5005372;28;20462;-69
2022/08/11 04:06:39;;;;;;;14.93;3.97;;;18.40;99.90;;;;;;5005268;28;20487;-69
2022/08/11 04:09:45;;;;;;;2.63;2.43;;;18.30;99.90;;;;;;5011139;28;20484;-69
2022/08/11 04:12:45;;;;;;;3.83;3.30;;;18.30;99.90;;;;;;5010517;28;20512;-69
2022/08/11 04:16:00;;;;;;;5.10;3.40;;;18.20;99.90;;;;;;5019303;28;20465;-69
2022/08/11 04:19:05;;;;;;;8.20;3.10;;;18.10;99.90;;;;;;5023755;28;20467;-69
2022/08/11 04:22:06;;;;;;;5.90;3.30;;;18.10;99.90;;;;;;5020115;28;20446;-69
2022/08/11 04:24:59;;;;;;;8.17;3.70;;;18.10;99.90;;;;;;5026191;28;20932;-70
2022/08/11 04:28:20;;;;;;;4.63;2.90;;;18.10;99.90;;;;;;5023838;28;20479;-70
2022/08/11 04:31:11;;;;;;;16.07;3.93;;;18.10;99.90;;;;;;5018001;28;20480;-70
2022/08/11 04:34:05;;;;;;;10.43;4.90;;;18.10;99.90;;;;;;5020845;28;20489;-70
2022/08/11 04:39:48;;;;;;;5.00;4.00;;;18.20;99.90;;;;;;5019880;28;20439;-70
2022/08/11 04:43:21;;;;;;;12.33;4.53;;;18.30;99.90;;;;;;5018144;28;20475;-70
2022/08/11 04:46:42;;;;;;;7.63;4.30;;;18.30;99.90;;;;;;4999518;28;20492;-70
2022/08/11 05:02:58;;;;;;;4.27;3.87;;;18.30;99.90;;;;;;5013902;28;20857;-70
2022/08/11 05:05:41;;;;;;;6.20;3.83;;;18.60;99.90;;;;;;4989582;28;20457;-70
2022/08/11 05:08:52;;;;;;;16.83;4.90;;;18.90;99.90;;;;;;5009958;28;20877;-70
2022/08/11 05:11:38;;;;;;;6.50;4.90;;;19.30;99.90;;;;;;5022006;28;20488;-71
2022/08/11 05:36:51;;;;;;;6.43;3.53;;;22.30;99.90;;;;;;4978185;28;21092;-69
2022/08/11 05:56:18;;;;;;;6.97;4.20;;;23.30;99.90;;;;;;4982902;28;20460;-70
2022/08/11 05:58:49;;;;;;;9.33;4.50;;;23.50;99.90;;;;;;4994562;28;20845;-70
2022/08/11 06:01:29;;;;;;;8.20;3.50;;;23.50;99.90;;;;;;5001343;28;20453;-70
2022/08/11 06:04:16;;;;;;;5.03;3.80;;;23.70;99.90;;;;;;5014850;28;20458;-70
2022/08/11 06:06:57;;;;;;;7.93;3.33;;;23.80;99.90;;;;;;5012722;28;20500;-70
2022/08/11 06:09:27;;;;;;;3.23;2.70;;;24.30;99.90;;;;;;5008357;28;20497;-70
2022/08/11 06:12:00;;;;;;;4.83;3.03;;;23.70;99.90;;;;;;5008873;28;20488;-70
2022/08/11 06:14:28;;;;;;;3.53;2.40;;;24.10;99.90;;;;;;5010850;28;20462;-70
2022/08/11 06:16:59;;;;;;;9.77;2.90;;;24.60;99.90;;;;;;5016271;28;20481;-70
2022/08/11 06:19:33;;;;;;;3.87;2.80;;;25.10;99.90;;;;;;5013789;28;20468;-70
2022/08/11 06:22:02;;;;;;;5.87;2.90;;;25.30;99.90;;;;;;5012627;28;20595;-70
2022/08/11 06:24:31;;;;;;;4.00;2.27;;;25.60;99.90;;;;;;5016564;28;20464;-71
2022/08/11 06:27:01;;;;;;;5.00;2.90;;;25.80;99.50;;;;;;5015681;28;21055;-70
2022/08/11 06:29:28;;;;;;;11.90;3.13;;;26.00;98.60;;;;;;5012399;28;20936;-70
2022/08/11 06:31:59;;;;;;;3.10;2.40;;;25.80;97.90;;;;;;5014064;28;20502;-70
2022/08/11 06:34:40;;;;;;;8.27;2.70;;;25.90;98.00;;;;;;5008089;28;20460;-70
2022/08/11 06:37:23;;;;;;;4.00;2.57;;;26.40;97.40;;;;;;5010721;28;20544;-70
2022/08/11 06:40:00;;;;;;;5.90;2.60;;;26.70;96.30;;;;;;5011580;28;20474;-69
2022/08/11 06:42:38;;;;;;;3.03;1.90;;;26.90;95.60;;;;;;5014195;28;20481;-69
2022/08/11 06:45:12;;;;;;;6.27;2.70;;;27.00;95.60;;;;;;5016866;28;20465;-70
2022/08/11 06:47:44;;;;;;;3.33;2.50;;;27.00;94.90;;;;;;5014600;28;20473;-70
2022/08/11 06:53:00;;;;;;;3.40;2.03;;;27.70;92.90;;;;;;5015520;28;20858;-69
2022/08/11 07:01:08;;;;;;;3.23;2.73;;;27.60;91.20;;;;;;5012590;28;20539;-70
2022/08/11 07:03:42;;;;;;;5.27;2.13;;;27.80;90.90;;;;;;5017595;28;20580;-70
2022/08/11 07:06:21;;;;;;;5.57;2.43;;;28.00;90.80;;;;;;5016340;28;20493;-71
2022/08/11 07:15:43;;;;;;;4.37;2.30;;;28.40;87.40;;;;;;5016749;28;20472;-71
2022/08/11 07:29:37;;;;;;;2.83;2.43;;;30.40;79.50;;;;;;5014331;28;20617;-70
2022/08/11 07:32:15;;;;;;;10.00;2.13;;;30.60;77.20;;;;;;5022569;28;20926;-70
2022/08/11 07:34:48;;;;;;;2.43;2.23;;;30.60;77.00;;;;;;5016033;28;20556;-70
2022/08/11 07:37:18;;;;;;;4.70;2.30;;;30.50;76.60;;;;;;5023424;28;20557;-70
2022/08/11 07:39:48;;;;;;;3.40;2.67;;;30.40;74.80;;;;;;5020857;28;20552;-71
2022/08/11 07:42:20;;;;;;;3.77;2.53;;;30.70;75.20;;;;;;5020725;28;20470;-70
2022/08/11 07:53:05;;;;;;;3.80;2.53;;;32.90;67.60;;;;;;5007479;28;20488;-70
2022/08/11 07:55:33;;;;;;;5.30;3.03;;;33.30;65.90;;;;;;5017740;28;20464;-70
2022/08/11 08:20:12;;;;;;;5.77;2.83;;;34.90;58.10;;;;;;5024450;28;20951;-71
2022/08/11 08:22:39;;;;;;;7.53;3.20;;;35.50;56.80;;;;;;5025204;28;20441;-71
2022/08/11 08:25:07;;;;;;;5.43;3.50;;;35.90;56.20;;;;;;5018358;28;20472;-71
2022/08/11 08:27:35;;;;;;;3.57;2.60;;;35.70;53.90;;;;;;5020548;28;20470;-69
2022/08/11 08:32:48;;;;;;;4.10;3.13;;;34.60;55.40;;;;;;5009903;28;20476;-70
2022/08/11 08:35:16;;;;;;;3.90;2.73;;;34.60;55.80;;;;;;5018363;28;20457;-70
2022/08/11 08:37:43;;;;;;;3.03;2.73;;;35.10;55.20;;;;;;5019968;28;21099;-71
2022/08/11 08:40:12;;;;;;;4.90;3.10;;;35.40;54.40;;;;;;5014116;28;20457;-70
2022/08/11 08:42:50;;;;;;;10.57;2.87;;;36.00;54.70;;;;;;5021210;28;20441;-70
2022/08/11 08:45:18;;;;;;;4.40;2.90;;;35.90;53.30;;;;;;5018031;28;20464;-71
2022/08/11 08:47:48;;;;;;;3.63;2.77;;;36.30;53.40;;;;;;5020726;28;20480;-71
2022/08/11 08:50:21;;;;;;;4.87;3.00;;;37.00;52.20;;;;;;5023767;28;20973;-71
2022/08/11 08:52:53;;;;;;;3.07;2.50;;;37.10;52.20;;;;;;5027195;28;20564;-70
2022/08/11 08:55:20;;;;;;;5.87;3.43;;;37.00;51.50;;;;;;5022948;28;20464;-70
2022/08/11 08:57:50;;;;;;;6.80;3.00;;;37.40;50.40;;;;;;5023842;28;20477;-71
2022/08/11 09:00:18;;;;;;;4.10;3.23;;;37.20;51.00;;;;;;5025608;28;20461;-71
2022/08/11 09:02:45;;;;;;;5.90;3.30;;;36.60;51.60;;;;;;5023046;28;20526;-71
2022/08/11 09:05:13;;;;;;;4.73;3.10;;;37.00;50.40;;;;;;5026219;28;20531;-72
2022/08/11 09:07:41;;;;;;;3.47;2.90;;;37.10;50.50;;;;;;5025744;28;20469;-70
2022/08/11 09:10:10;;;;;;;5.73;2.33;;;37.30;49.20;;;;;;5018826;28;20456;-71
2022/08/11 09:12:40;;;;;;;20.23;4.50;;;37.20;48.60;;;;;;5019598;28;20573;-71
2022/08/11 09:15:10;;;;;;;9.43;2.60;;;36.80;49.30;;;;;;5023099;28;20964;-71
2022/08/11 09:17:40;;;;;;;4.07;2.60;;;37.80;48.70;;;;;;5022415;28;20465;-71
2022/08/11 09:20:09;;;;;;;10.13;3.00;;;38.50;47.50;;;;;;5025264;28;21083;-71
2022/08/11 09:28:23;;;;;;;10.40;2.77;;;39.50;46.40;;;;;;4978050;28;20429;-71
2022/08/11 09:30:53;;;;;;;6.17;2.50;;;39.80;44.50;;;;;;5022158;28;20488;-71
2022/08/11 09:33:22;;;;;;;9.33;3.13;;;39.10;44.40;;;;;;5020013;28;20538;-71
2022/08/11 09:35:52;;;;;;;4.50;2.70;;;39.40;44.60;;;;;;5023765;28;20453;-71
2022/08/11 09:41:09;;;;;;;7.67;2.60;;;39.30;43.50;;;;;;5012798;28;20527;-71
2022/08/11 09:46:32;;;;;;;5.67;2.77;;;39.70;43.20;;;;;;4978701;28;20479;-70
2022/08/11 09:49:00;;;;;;;8.50;3.10;;;39.80;43.40;;;;;;5019740;28;20502;-70
2022/08/11 09:51:31;;;;;;;5.03;3.00;;;39.80;43.50;;;;;;5012977;28;20475;-70
2022/08/11 09:54:00;;;;;;;7.03;2.50;;;39.00;42.60;;;;;;5020558;28;20490;-70
2022/08/11 09:59:14;;;;;;;5.43;3.13;;;39.30;43.20;;;;;;5025893;28;20468;-69
2022/08/11 10:01:45;;;;;;;3.07;2.77;;;39.50;41.50;;;;;;5023058;28;20470;-71
2022/08/11 10:04:18;;;;;;;4.40;2.23;;;39.70;40.80;;;;;;5026533;28;20449;-70
2022/08/11 10:07:03;;;;;;;2.80;2.27;;;39.20;40.20;;;;;;5022574;28;20468;-70
2022/08/11 10:09:38;;;;;;;2.73;2.53;;;39.30;39.50;;;;;;5025330;28;20441;-71
2022/08/11 10:12:10;;;;;;;3.57;2.97;;;40.10;39.00;;;;;;5026445;28;20459;-71
2022/08/11 10:17:26;;;;;;;4.47;3.60;;;40.20;37.80;;;;;;5022499;28;20483;-70
2022/08/11 10:19:56;;;;;;;6.13;2.70;;;40.00;37.40;;;;;;5016864;28;20456;-71
2022/08/11 10:27:58;;;;;;;5.83;3.73;;;40.00;38.00;;;;;;5026509;28;20464;-73
2022/08/11 10:35:58;;;;;;;4.93;4.43;;;39.40;37.80;;;;;;5000308;28;21016;-73
2022/08/11 10:38:26;;;;;;;8.17;4.10;;;38.50;38.20;;;;;;5007693;28;20461;-74
2022/08/11 10:43:38;;;;;;;7.23;2.80;;;39.30;37.00;;;;;;5010204;28;20523;-73
2022/08/11 10:48:55;;;;;;;2.60;2.40;;;41.70;36.30;;;;;;4997700;28;20452;-73
2022/08/11 10:59:46;;;;;;;7.13;2.80;;;41.40;36.60;;;;;;4997489;28;20491;-73
2022/08/11 11:02:15;;;;;;;3.30;2.80;;;41.60;36.10;;;;;;5003590;28;21004;-73
2022/08/11 11:04:57;;;;;;;4.73;2.53;;;41.80;35.90;;;;;;5002439;28;20448;-74
2022/08/11 11:07:35;;;;;;;2.83;2.53;;;41.80;36.00;;;;;;5004759;28;20792;-74
2022/08/11 11:10:04;;;;;;;3.10;2.30;;;41.80;35.40;;;;;;5000661;28;20545;-73
2022/08/11 11:18:11;;;;;;;3.00;2.40;;;42.60;34.20;;;;;;4991064;28;20975;-73
2022/08/11 11:20:42;;;;;;;7.30;3.80;;;42.40;34.40;;;;;;5001096;28;20483;-74
2022/08/11 11:23:15;;;;;;;5.23;2.60;;;42.90;34.50;;;;;;4999998;28;20576;-74
2022/08/11 11:26:11;;;;;;;2.63;2.40;;;43.20;34.10;;;;;;4997115;28;20453;-74
2022/08/11 11:29:15;;;;;;;4.23;2.70;;;43.40;34.20;;;;;;5003798;28;20821;-74
2022/08/11 11:31:58;;;;;;;16.00;4.63;;;43.80;33.60;;;;;;4998709;28;20463;-76
2022/08/11 11:34:46;;;;;;;3.20;2.67;;;44.00;33.50;;;;;;4998990;28;20488;-73
2022/08/11 11:37:16;;;;;;;3.00;2.70;;;43.10;33.50;;;;;;5001580;28;20545;-73
2022/08/11 11:39:43;;;;;;;3.20;2.53;;;42.30;34.00;;;;;;5005945;28;20446;-73
2022/08/11 11:42:11;;;;;;;3.40;2.43;;;42.00;33.70;;;;;;5006086;28;20484;-73
2022/08/11 11:44:39;;;;;;;2.37;2.10;;;42.10;33.60;;;;;;5006036;28;20449;-75
2022/08/11 11:47:08;;;;;;;3.30;3.00;;;41.40;34.30;;;;;;5006185;28;20454;-74
2022/08/11 11:49:38;;;;;;;3.17;2.87;;;41.20;34.40;;;;;;5000592;28;20468;-73
2022/08/11 11:52:07;;;;;;;5.57;3.13;;;42.20;34.20;;;;;;4999834;28;20547;-74
2022/08/11 11:54:36;;;;;;;7.33;2.80;;;41.70;33.70;;;;;;4995609;28;20482;-74
2022/08/11 12:01:14;;;;;;;3.20;3.00;;;41.40;34.30;;;;;;5001045;28;20476;-73
2022/08/11 12:02:42;;;;;;;4.60;2.40;;;41.60;35.00;;;;;;5008560;28;20472;-73
2022/08/11 12:05:11;;;;;;;3.10;2.67;;;41.80;33.80;;;;;;5008855;28;20497;-74
2022/08/11 12:10:25;;;;;;;12.03;2.80;;;41.20;34.90;;;;;;4994320;28;21007;-74
2022/08/11 12:15:37;;;;;;;6.17;2.47;;;40.70;35.50;;;;;;4993096;28;20449;-73
2022/08/11 12:18:06;;;;;;;2.83;2.13;;;41.30;34.50;;;;;;4991184;28;20471;-73
2022/08/11 12:20:34;;;;;;;3.70;2.80;;;41.80;34.40;;;;;;4998833;28;20454;-74
2022/08/11 12:28:31;;;;;;;3.90;2.50;;;40.40;35.10;;;;;;4999371;28;20489;-74
2022/08/11 12:30:58;;;;;;;8.03;2.90;;;40.40;35.30;;;;;;4996499;28;20465;-73
2022/08/11 12:33:27;;;;;;;13.83;3.00;;;41.20;34.40;;;;;;5004657;28;20489;-73
2022/08/11 12:35:58;;;;;;;3.77;2.40;;;42.20;34.30;;;;;;4995145;28;20462;-74
2022/08/11 12:38:26;;;;;;;2.90;2.60;;;42.50;33.80;;;;;;5002585;28;20456;-74
2022/08/11 12:46:37;;;;;;;4.67;2.40;;;42.70;33.20;;;;;;4996735;28;20433;-74
2022/08/11 12:52:01;;;;;;;16.70;3.87;;;43.60;32.40;;;;;;4994061;28;20476;-73
2022/08/11 12:54:33;;;;;;;3.03;2.50;;;42.10;33.30;;;;;;4998496;28;20481;-73
2022/08/11 13:05:22;;;;;;;4.90;2.90;;;41.00;34.10;;;;;;5006006;28;20455;-73
2022/08/11 13:07:49;;;;;;;2.90;2.20;;;40.90;33.70;;;;;;5006146;28;20458;-73
2022/08/11 13:12:46;;;;;;;2.87;2.57;;;41.20;33.00;;;;;;4996264;28;20465;-72
2022/08/11 13:13:07;;;;;;;4.47;2.93;;;41.70;32.60;;;;;;4995257;28;20513;-73
2022/08/11 13:15:36;;;;;;;3.40;2.30;;;41.70;32.90;;;;;;5004328;28;21268;-72
2022/08/11 13:18:06;;;;;;;3.27;2.73;;;42.30;32.60;;;;;;4995186;28;20733;-72
2022/08/11 13:20:36;;;;;;;5.30;3.10;;;42.20;32.20;;;;;;4997211;28;20517;-73
2022/08/11 13:23:04;;;;;;;4.97;4.43;;;41.80;32.60;;;;;;4996924;28;20485;-74
2022/08/11 13:25:32;;;;;;;3.07;2.77;;;40.80;33.00;;;;;;4991048;28;20692;-74
2022/08/11 13:28:01;;;;;;;2.83;2.50;;;40.10;32.50;;;;;;4995484;28;20458;-74
2022/08/11 13:33:17;;;;;;;7.30;2.60;;;40.30;33.20;;;;;;5003517;28;20695;-73
2022/08/11 13:35:46;;;;;;;3.20;2.43;;;41.40;32.80;;;;;;4991145;28;21029;-74
2022/08/11 13:38:14;;;;;;;2.97;2.67;;;42.80;32.00;;;;;;4994782;28;20495;-74
2022/08/11 13:40:42;;;;;;;3.30;2.67;;;42.90;32.40;;;;;;4995519;28;20461;-73
2022/08/11 13:43:09;;;;;;;2.53;2.33;;;43.10;31.60;;;;;;4992604;28;21272;-74
2022/08/11 13:45:37;;;;;;;2.80;2.47;;;43.30;32.20;;;;;;4990766;28;20462;-74
2022/08/11 13:48:08;;;;;;;2.60;2.40;;;42.60;32.00;;;;;;4995859;28;20997;-74
2022/08/11 13:53:25;;;;;;;5.30;2.37;;;41.70;31.50;;;;;;4998787;28;20472;-74
2022/08/11 13:55:53;;;;;;;5.00;3.83;;;40.50;32.20;;;;;;5001935;28;20462;-74
2022/08/11 13:58:21;;;;;;;3.13;2.83;;;40.40;32.20;;;;;;5004857;28;20465;-74
2022/08/11 14:00:50;;;;;;;2.57;2.37;;;40.70;32.00;;;;;;5008483;28;20447;-74
2022/08/11 14:03:20;;;;;;;5.83;3.20;;;40.90;31.70;;;;;;5012506;28;20463;-74
2022/08/11 14:05:52;;;;;;;3.27;2.60;;;40.40;31.90;;;;;;5007866;28;20458;-73
2022/08/11 14:08:26;;;;;;;3.13;2.90;;;39.60;32.40;;;;;;5008638;28;20469;-74
2022/08/11 14:13:42;;;;;;;4.13;2.57;;;41.20;32.30;;;;;;4999589;28;20485;-74
2022/08/11 14:16:17;;;;;;;2.93;2.73;;;41.90;31.50;;;;;;5004704;28;20457;-75
2022/08/11 14:18:46;;;;;;;2.97;2.67;;;41.60;31.10;;;;;;5010577;28;20861;-75
2022/08/11 14:24:03;;;;;;;4.93;2.60;;;40.20;32.20;;;;;;5002142;28;20494;-75
2022/08/11 14:26:37;;;;;;;2.93;2.67;;;40.70;31.80;;;;;;5007556;28;20450;-74
2022/08/11 14:29:09;;;;;;;7.77;2.70;;;41.10;31.60;;;;;;4998938;28;20465;-74
2022/08/11 14:31:40;;;;;;;3.30;2.30;;;41.00;31.70;;;;;;4996208;28;20458;-75
2022/08/11 14:34:09;;;;;;;5.83;3.10;;;39.90;31.90;;;;;;5000962;28;20487;-75
2022/08/11 14:36:38;;;;;;;5.10;3.00;;;37.80;33.10;;;;;;5001617;28;21042;-75
2022/08/11 14:39:11;;;;;;;5.13;2.20;;;36.70;33.90;;;;;;4993214;28;20970;-74
2022/08/11 14:47:13;;;;;;;3.93;2.77;;;35.10;35.00;;;;;;4962789;28;20525;-74
2022/08/11 14:49:41;;;;;;;3.50;2.80;;;34.60;35.40;;;;;;5000094;28;20478;-74
2022/08/11 14:52:14;;;;;;;8.27;4.13;;;34.30;35.20;;;;;;4988871;28;20497;-74
2022/08/11 14:57:32;;;;;;;6.20;3.00;;;34.30;35.80;;;;;;4997939;28;20452;-74
2022/08/11 15:00:02;;;;;;;3.63;2.30;;;34.50;36.20;;;;;;4994628;28;20465;-74
2022/08/11 15:05:15;;;;;;;5.27;3.27;;;34.30;36.60;;;;;;5001693;28;20477;-73
2022/08/11 15:07:42;;;;;;;3.20;2.90;;;34.20;37.40;;;;;;5009035;28;20450;-74
2022/08/11 15:10:11;;;;;;;3.60;3.30;;;34.20;36.90;;;;;;4987507;28;20934;-73
2022/08/11 15:12:41;;;;;;;4.13;2.87;;;34.10;36.90;;;;;;4988562;28;20477;-73
2022/08/11 15:17:56;;;;;;;5.30;3.17;;;33.70;37.50;;;;;;4990728;28;20533;-73
2022/08/11 15:25:58;;;;;;;3.60;2.93;;;34.00;37.30;;;;;;4996720;28;20824;-73
2022/08/11 15:45:46;;;;;;;4.23;3.50;;;33.60;37.70;;;;;;4988561;28;21755;-73
2022/08/11 15:48:02;;;;;;;6.30;3.20;;;33.40;37.40;;;;;;4995804;28;20464;-74
2022/08/11 15:50:32;;;;;;;5.57;3.00;;;33.70;37.90;;;;;;5004901;28;20452;-73
2022/08/11 15:53:03;;;;;;;3.97;2.90;;;33.60;37.10;;;;;;5000244;28;20477;-73
2022/08/11 15:55:33;;;;;;;2.37;2.17;;;33.40;37.40;;;;;;4990517;28;20517;-72
2022/08/11 16:06:20;;;;;;;3.43;2.93;;;33.00;38.10;;;;;;4987195;28;20468;-74
2022/08/11 16:08:48;;;;;;;4.70;3.47;;;33.10;37.20;;;;;;4987872;28;20460;-74
2022/08/11 16:11:16;;;;;;;5.03;3.87;;;32.90;37.50;;;;;;4989823;28;20476;-75
2022/08/11 16:16:29;;;;;;;3.27;2.70;;;32.60;37.80;;;;;;4990059;28;20484;-74
2022/08/11 16:18:57;;;;;;;3.60;3.30;;;32.70;38.10;;;;;;4989112;28;20966;-74
2022/08/11 16:21:27;;;;;;;4.40;3.23;;;32.90;38.10;;;;;;4989448;28;20465;-74
2022/08/11 16:23:58;;;;;;;4.20;3.53;;;32.90;37.70;;;;;;4991907;28;20481;-73
2022/08/11 16:26:26;;;;;;;4.47;3.90;;;32.60;38.10;;;;;;4991039;28;20458;-73
2022/08/11 16:28:57;;;;;;;4.33;3.00;;;32.40;37.60;;;;;;5000299;28;20533;-73
2022/08/11 16:31:25;;;;;;;4.43;3.60;;;32.40;37.70;;;;;;4990527;28;20545;-73
2022/08/11 16:33:54;;;;;;;3.67;2.97;;;32.40;38.20;;;;;;4994371;28;20641;-73
2022/08/11 16:39:09;;;;;;;6.23;3.60;;;32.50;38.60;;;;;;5000128;28;20595;-74
2022/08/11 16:47:16;;;;;;;3.70;3.00;;;32.60;38.90;;;;;;4986460;28;20523;-69
2022/08/11 16:49:46;;;;;;;3.93;3.47;;;32.70;38.70;;;;;;4991123;28;20454;-69
2022/08/11 16:52:13;;;;;;;4.60;3.20;;;32.50;39.40;;;;;;4990244;28;23133;-69
2022/08/11 16:54:42;;;;;;;2.80;2.60;;;32.40;39.20;;;;;;4984156;28;20989;-69
2022/08/11 17:00:03;;;;;;;2.93;2.73;;;32.30;38.80;;;;;;4986854;28;20502;-68
2022/08/11 17:13:47;;;;;;;6.07;4.07;;;32.10;38.80;;;;;;4996083;28;20519;-67
2022/08/11 17:16:19;;;;;;;6.07;5.57;;;32.00;39.10;;;;;;4993951;28;20468;-66
2022/08/11 17:18:51;;;;;;;4.60;3.50;;;31.70;39.40;;;;;;4998789;28;20468;-67
2022/08/11 17:21:20;;;;;;;6.20;3.60;;;31.70;39.80;;;;;;4996951;28;20457;-67
2022/08/11 17:23:50;;;;;;;5.70;4.63;;;31.60;40.10;;;;;;4992182;28;20483;-68
2022/08/11 17:26:20;;;;;;;5.30;3.57;;;31.60;40.50;;;;;;4997239;28;20966;-68
2022/08/11 17:28:51;;;;;;;3.30;3.00;;;31.70;40.60;;;;;;4990330;28;20461;-66
2022/08/11 17:36:53;;;;;;;3.63;3.33;;;31.50;41.10;;;;;;4985650;28;20464;-66
2022/08/11 17:39:21;;;;;;;2.83;2.63;;;31.40;41.20;;;;;;4994494;28;21116;-67
2022/08/11 17:50:03;;;;;;;3.13;2.93;;;31.40;42.00;;;;;;4964749;28;20464;-68
2022/08/11 18:00:45;;;;;;;5.67;3.37;;;31.10;42.40;;;;;;4997412;28;20484;-67
2022/08/11 18:03:31;;;;;;;5.03;2.73;;;31.10;42.50;;;;;;4993244;28;20497;-67
2022/08/11 18:06:01;;;;;;;5.07;3.10;;;31.10;42.70;;;;;;4978412;28;20524;-67
